createdAt,value
2022-12-22T00:00:22.389Z,4.85
2022-12-22T00:03:08.004Z,4.85
2022-12-22T00:05:53.541Z,5.24
2022-12-22T00:08:39.082Z,5.53
2022-12-22T00:11:29.297Z,5.63
2022-12-22T00:14:15.563Z,5.57
2022-12-22T00:17:01.243Z,5.72
2022-12-22T00:19:48.592Z,5.08
2022-12-22T00:22:42.296Z,5.40
2022-12-22T00:25:32.361Z,5.72
2022-12-22T00:28:18.100Z,5.67
2022-12-22T00:31:04.648Z,5.67
2022-12-22T00:33:50.582Z,5.74
2022-12-22T00:36:36.765Z,5.57
2022-12-22T00:39:27.999Z,5.17
2022-12-22T00:42:13.596Z,5.28
2022-12-22T00:44:59.223Z,5.12
2022-12-22T00:47:47.765Z,5.14
2022-12-22T00:50:34.440Z,5.32
2022-12-22T00:53:21.281Z,5.16
2022-12-22T00:56:06.812Z,5.03
2022-12-22T00:58:53.313Z,4.98
2022-12-22T01:01:39.051Z,5.01
2022-12-22T01:04:24.096Z,4.70
2022-12-22T01:07:09.719Z,4.36
2022-12-22T01:09:55.432Z,4.23
2022-12-22T01:12:44.049Z,4.45
2022-12-22T01:15:36.541Z,4.55
2022-12-22T01:18:22.983Z,4.70
2022-12-22T01:21:09.633Z,4.57
2022-12-22T01:23:55.563Z,4.52
2022-12-22T01:26:40.780Z,4.55
2022-12-22T01:29:26.853Z,4.48
2022-12-22T01:32:12.483Z,4.38
2022-12-22T01:34:58.961Z,4.74
2022-12-22T01:37:44.445Z,5.37
2022-12-22T01:40:39.580Z,5.35
2022-12-22T01:43:42.624Z,5.03
2022-12-22T01:46:45.935Z,5.13
2022-12-22T01:50:02.470Z,5.21
2022-12-22T01:52:54.603Z,5.31
2022-12-22T01:55:43.193Z,5.25
2022-12-22T01:58:46.484Z,5.84
2022-12-22T02:01:32.642Z,5.88
2022-12-22T02:04:19.017Z,5.96
2022-12-22T02:07:05.526Z,5.72
2022-12-22T02:10:05.787Z,5.84
2022-12-22T02:13:09.716Z,5.63
2022-12-22T02:16:12.482Z,5.42
2022-12-22T02:19:09.477Z,5.49
2022-12-22T02:22:22.807Z,5.65
2022-12-22T02:25:17.638Z,5.51
2022-12-22T02:28:06.316Z,5.50
2022-12-22T02:30:52.345Z,5.73
2022-12-22T02:33:39.515Z,5.86
2022-12-22T02:36:55.576Z,5.96
2022-12-22T02:39:52.982Z,5.90
2022-12-22T02:42:53.790Z,5.76
2022-12-22T02:45:59.007Z,5.74
2022-12-22T02:48:59.990Z,5.77
2022-12-22T02:51:49.370Z,6.03
2022-12-22T02:54:36.597Z,6.04
2022-12-22T02:57:25.600Z,6.01
2022-12-22T03:00:11.316Z,5.93
2022-12-22T03:02:57.054Z,5.99
2022-12-22T03:05:42.698Z,6.07
2022-12-22T03:08:28.378Z,5.72
2022-12-22T03:11:13.961Z,5.79
2022-12-22T03:13:59.569Z,5.47
2022-12-22T03:16:45.216Z,5.45
2022-12-22T03:19:30.712Z,5.41
2022-12-22T03:22:16.380Z,5.18
2022-12-22T03:25:01.902Z,5.19
2022-12-22T03:27:29.007Z,5.04
2022-12-22T03:29:55.923Z,4.93
2022-12-22T03:32:22.940Z,5.02
2022-12-22T03:34:49.846Z,5.34
2022-12-22T03:37:16.741Z,5.30
2022-12-22T03:39:43.579Z,5.56
2022-12-22T03:42:30.673Z,5.46
2022-12-22T03:45:16.272Z,5.42
2022-12-22T03:47:43.151Z,5.46
2022-12-22T03:50:10.453Z,5.47
2022-12-22T03:52:37.476Z,5.45
2022-12-22T03:55:04.679Z,5.47
2022-12-22T03:57:31.829Z,5.43
2022-12-22T03:59:58.753Z,5.40
2022-12-22T04:02:25.810Z,5.24
2022-12-22T04:04:52.832Z,5.23
2022-12-22T04:07:19.772Z,5.13
2022-12-22T04:10:09.573Z,5.17
2022-12-22T04:12:54.736Z,4.90
2022-12-22T04:15:26.631Z,4.98
2022-12-22T04:17:53.877Z,5.14
2022-12-22T04:20:22.298Z,5.24
2022-12-22T04:22:49.888Z,5.32
2022-12-22T04:25:17.035Z,5.44
2022-12-22T04:27:44.033Z,5.30
2022-12-22T04:30:11.783Z,5.22
2022-12-22T04:32:38.798Z,5.17
2022-12-22T04:35:06.841Z,5.32
2022-12-22T04:37:34.620Z,5.25
2022-12-22T04:40:01.621Z,5.26
2022-12-22T04:42:28.624Z,5.39
2022-12-22T04:44:55.774Z,5.31
2022-12-22T04:47:22.644Z,4.93
2022-12-22T04:49:49.591Z,4.96
2022-12-22T04:52:16.484Z,4.92
2022-12-22T04:54:43.331Z,4.86
2022-12-22T04:57:10.279Z,4.59
2022-12-22T04:59:37.300Z,4.49
2022-12-22T05:02:04.363Z,4.64
2022-12-22T05:04:32.467Z,4.45
2022-12-22T05:06:59.545Z,4.19
2022-12-22T05:09:26.496Z,4.05
2022-12-22T05:11:53.389Z,4.03
2022-12-22T05:14:20.274Z,3.80
2022-12-22T05:16:47.328Z,3.88
2022-12-22T05:19:14.368Z,3.72
2022-12-22T05:21:41.209Z,3.66
2022-12-22T05:24:08.172Z,3.64
2022-12-22T05:26:35.060Z,3.70
2022-12-22T05:29:01.972Z,3.90
2022-12-22T05:31:28.904Z,4.28
2022-12-22T05:33:55.952Z,4.14
2022-12-22T05:36:22.945Z,3.98
2022-12-22T05:38:49.830Z,3.83
2022-12-22T05:41:16.756Z,4.11
2022-12-22T05:43:43.779Z,4.17
2022-12-22T05:46:11.768Z,4.41
2022-12-22T05:48:40.023Z,5.08
2022-12-22T05:51:08.839Z,5.80
2022-12-22T05:53:36.740Z,6.42
2022-12-22T05:56:04.380Z,7.29
2022-12-22T05:58:31.431Z,8.11
2022-12-22T06:00:59.094Z,9.03
2022-12-22T06:03:27.455Z,9.54
2022-12-22T06:05:55.261Z,10.53
2022-12-22T06:08:23.030Z,12.03
2022-12-22T06:10:50.182Z,12.94
2022-12-22T06:13:17.252Z,14.07
2022-12-22T06:15:44.261Z,14.36
2022-12-22T06:18:11.386Z,13.34
2022-12-22T06:20:38.259Z,12.38
2022-12-22T06:23:05.172Z,13.19
2022-12-22T06:25:32.151Z,13.92
2022-12-22T06:27:59.048Z,14.35
2022-12-22T06:30:32.905Z,14.92
2022-12-22T06:33:01.076Z,15.89
2022-12-22T06:35:28.277Z,15.35
2022-12-22T06:37:55.154Z,16.21
2022-12-22T06:40:22.003Z,15.40
2022-12-22T06:43:09.042Z,15.03
2022-12-22T06:45:38.561Z,15.54
2022-12-22T06:48:05.994Z,14.59
2022-12-22T06:50:33.257Z,13.93
2022-12-22T06:53:00.427Z,14.22
2022-12-22T06:55:27.406Z,15.13
2022-12-22T06:57:55.077Z,15.43
2022-12-22T07:00:22.474Z,15.47
2022-12-22T07:02:49.578Z,16.37
2022-12-22T07:05:17.096Z,17.01
2022-12-22T07:07:44.009Z,17.52
2022-12-22T07:10:11.983Z,17.53
2022-12-22T07:12:38.868Z,16.06
2022-12-22T07:15:06.646Z,15.19
2022-12-22T07:17:33.616Z,16.24
2022-12-22T07:20:00.494Z,15.91
2022-12-22T07:22:30.218Z,14.85
2022-12-22T07:24:58.435Z,14.23
2022-12-22T07:27:25.487Z,14.65
2022-12-22T07:29:52.370Z,13.79
2022-12-22T07:32:19.235Z,13.16
2022-12-22T07:34:46.453Z,13.45
2022-12-22T07:37:13.963Z,13.49
2022-12-22T07:39:40.963Z,13.94
2022-12-22T07:42:29.405Z,14.03
2022-12-22T07:44:56.989Z,14.35
2022-12-22T07:47:25.410Z,14.13
2022-12-22T07:50:14.378Z,13.59
2022-12-22T07:52:41.294Z,13.44
2022-12-22T07:55:09.028Z,12.99
2022-12-22T07:57:36.134Z,13.47
2022-12-22T08:00:04.535Z,14.32
2022-12-22T08:02:39.589Z,13.93
2022-12-22T08:05:08.161Z,14.70
2022-12-22T08:07:35.599Z,14.99
2022-12-22T08:10:02.683Z,15.41
2022-12-22T08:12:30.000Z,15.86
2022-12-22T08:14:57.117Z,16.17
2022-12-22T08:17:24.058Z,16.61
2022-12-22T08:19:51.017Z,15.92
2022-12-22T08:22:17.965Z,16.25
2022-12-22T08:24:44.852Z,15.86
2022-12-22T08:27:22.270Z,15.30
2022-12-22T08:29:57.301Z,16.16
2022-12-22T08:32:24.559Z,16.28
2022-12-22T08:34:52.947Z,16.52
2022-12-22T08:37:25.231Z,17.53
2022-12-22T08:39:58.922Z,17.81
2022-12-22T08:42:26.750Z,18.81
2022-12-22T08:44:53.653Z,19.62
2022-12-22T08:47:21.851Z,19.69
2022-12-22T08:49:49.884Z,19.72
2022-12-22T08:52:19.378Z,21.28
2022-12-22T08:54:47.008Z,20.60
2022-12-22T08:57:13.838Z,20.75
2022-12-22T08:59:40.751Z,20.47
2022-12-22T09:02:07.759Z,20.49
2022-12-22T09:04:35.590Z,19.51
2022-12-22T09:07:02.820Z,20.67
2022-12-22T09:09:34.484Z,20.24
2022-12-22T09:12:03.008Z,18.97
2022-12-22T09:14:30.762Z,17.81
2022-12-22T09:16:57.691Z,17.99
2022-12-22T09:19:24.725Z,18.21
2022-12-22T09:21:51.726Z,19.26
2022-12-22T09:24:18.756Z,19.94
2022-12-22T09:26:45.758Z,20.77
2022-12-22T09:29:15.732Z,19.27
2022-12-22T09:31:44.006Z,19.35
2022-12-22T09:34:17.072Z,20.81
2022-12-22T09:36:45.520Z,21.56
2022-12-22T09:39:12.597Z,20.13
2022-12-22T09:41:54.704Z,18.85
2022-12-22T09:44:21.506Z,18.48
2022-12-22T09:46:49.932Z,17.84
2022-12-22T09:49:19.166Z,19.69
2022-12-22T09:52:01.241Z,20.79
2022-12-22T09:54:30.069Z,20.88
2022-12-22T09:56:57.813Z,20.03
2022-12-22T09:59:27.761Z,20.63
2022-12-22T10:02:20.998Z,21.42
2022-12-22T10:05:04.694Z,21.26
2022-12-22T10:07:36.378Z,22.07
2022-12-22T10:10:25.545Z,20.52
2022-12-22T10:12:56.275Z,20.53
2022-12-22T10:15:24.005Z,21.42
2022-12-22T10:17:53.454Z,22.39
2022-12-22T10:20:25.536Z,22.08
2022-12-22T10:23:21.508Z,20.71
2022-12-22T10:28:51.133Z,21.06
2022-12-22T10:31:30.216Z,20.11
2022-12-22T10:34:11.347Z,20.47
2022-12-22T10:36:39.001Z,19.64
2022-12-22T10:39:09.516Z,20.71
2022-12-22T10:41:41.286Z,21.47
2022-12-22T10:44:22.739Z,19.84
2022-12-22T10:46:55.563Z,19.58
2022-12-22T10:49:30.913Z,21.27
2022-12-22T10:52:15.284Z,18.66
2022-12-22T10:54:44.898Z,19.16
2022-12-22T10:57:15.010Z,19.37
2022-12-22T10:59:55.315Z,18.43
2022-12-22T11:02:22.842Z,18.77
2022-12-22T11:04:51.242Z,20.64
2022-12-22T11:07:18.883Z,20.93
2022-12-22T11:09:45.874Z,19.07
2022-12-22T11:12:21.926Z,19.28
2022-12-22T11:15:18.528Z,19.40
2022-12-22T11:18:16.475Z,19.17
2022-12-22T11:21:05.416Z,19.84
2022-12-22T11:23:43.523Z,19.12
2022-12-22T11:26:19.521Z,19.81
2022-12-22T11:29:04.527Z,19.95
2022-12-22T11:31:37.517Z,19.25
2022-12-22T11:34:31.557Z,20.92
2022-12-22T11:37:21.656Z,19.83
2022-12-22T11:40:27.281Z,19.52
2022-12-22T11:43:21.584Z,19.24
2022-12-22T11:46:19.363Z,19.33
2022-12-22T11:49:05.083Z,19.68
2022-12-22T11:52:05.529Z,18.80
2022-12-22T11:54:50.867Z,18.64
2022-12-22T11:57:36.215Z,17.75
2022-12-22T12:00:11.518Z,18.23
2022-12-22T12:03:00.025Z,18.36
2022-12-22T12:05:44.112Z,18.96
2022-12-22T12:08:29.788Z,18.77
2022-12-22T12:11:11.634Z,18.33
2022-12-22T12:14:03.546Z,16.90
2022-12-22T12:17:03.169Z,17.83
2022-12-22T12:19:51.588Z,15.91
2022-12-22T12:22:33.688Z,17.05
2022-12-22T12:25:03.499Z,16.33
2022-12-22T12:27:39.605Z,17.01
2022-12-22T12:33:07.377Z,17.15
2022-12-22T12:35:40.458Z,17.55
2022-12-22T12:38:47.850Z,17.44
2022-12-22T12:41:33.451Z,16.92
2022-12-22T12:44:03.359Z,18.14
2022-12-22T12:47:16.431Z,18.79
2022-12-22T12:49:52.139Z,19.12
2022-12-22T12:52:48.814Z,19.79
2022-12-22T12:55:55.082Z,19.70
2022-12-22T12:58:39.755Z,19.35
2022-12-22T13:01:10.774Z,18.58
2022-12-22T13:06:49.929Z,18.79
2022-12-22T13:09:49.171Z,18.11
2022-12-22T13:12:54.164Z,17.88
2022-12-22T13:15:36.480Z,18.06
2022-12-22T13:18:09.769Z,16.70
2022-12-22T13:20:38.887Z,16.48
2022-12-22T13:23:13.769Z,16.14
2022-12-22T13:25:58.998Z,15.62
2022-12-22T13:28:27.711Z,16.02
2022-12-22T13:31:06.471Z,15.19
2022-12-22T13:33:38.363Z,15.11
2022-12-22T13:36:08.819Z,15.31
2022-12-22T13:38:37.785Z,15.06
2022-12-22T13:41:26.842Z,14.49
2022-12-22T13:44:04.619Z,14.39
2022-12-22T13:46:35.319Z,14.92
2022-12-22T13:49:04.980Z,14.64
2022-12-22T13:51:36.377Z,14.85
2022-12-22T13:54:11.127Z,14.28
2022-12-22T13:56:48.429Z,13.64
2022-12-22T13:59:38.531Z,13.62
2022-12-22T14:02:08.648Z,12.95
2022-12-22T14:04:38.143Z,13.30
2022-12-22T14:07:19.370Z,13.21
2022-12-22T14:09:48.180Z,12.58
2022-12-22T14:12:18.579Z,11.98
2022-12-22T14:14:47.728Z,12.20
2022-12-22T14:17:27.085Z,12.45
2022-12-22T14:19:59.808Z,12.45
2022-12-22T14:22:36.931Z,11.28
2022-12-22T14:25:12.420Z,10.80
2022-12-22T14:27:56.652Z,10.28
2022-12-22T14:30:38.895Z,9.52
2022-12-22T14:33:28.638Z,9.49
2022-12-22T14:36:18.412Z,9.86
2022-12-22T14:38:56.912Z,9.99
2022-12-22T14:41:42.964Z,10.18
2022-12-22T14:44:18.752Z,10.10
2022-12-22T14:47:01.345Z,9.93
2022-12-22T14:49:28.368Z,9.84
2022-12-22T14:52:08.730Z,10.04
2022-12-22T14:54:35.801Z,9.93
2022-12-22T14:57:15.601Z,9.99
2022-12-22T15:00:17.850Z,9.96
2022-12-22T15:02:54.381Z,9.88
2022-12-22T15:05:26.710Z,9.68
2022-12-22T15:08:05.980Z,9.78
2022-12-22T15:10:41.454Z,9.89
2022-12-22T15:13:30.883Z,9.74
2022-12-22T15:15:57.785Z,9.84
2022-12-22T15:18:27.484Z,9.62
2022-12-22T15:20:56.597Z,9.70
2022-12-22T15:23:23.653Z,9.76
2022-12-22T15:25:50.826Z,9.79
2022-12-22T15:28:17.866Z,9.92
2022-12-22T15:30:45.024Z,9.82
2022-12-22T15:33:15.264Z,9.86
2022-12-22T15:35:42.715Z,9.72
2022-12-22T15:38:15.888Z,9.53
2022-12-22T15:40:43.617Z,9.47
2022-12-22T15:43:22.769Z,9.33
2022-12-22T15:45:58.824Z,9.38
2022-12-22T15:48:33.111Z,9.27
2022-12-22T15:51:03.505Z,9.30
2022-12-22T15:53:31.954Z,9.09
2022-12-22T15:55:58.999Z,9.04
2022-12-22T15:58:29.438Z,9.17
2022-12-22T16:00:56.464Z,9.23
2022-12-22T16:03:23.530Z,9.22
2022-12-22T16:05:52.132Z,9.15
2022-12-22T16:08:26.303Z,8.70
2022-12-22T16:10:53.258Z,8.70
2022-12-22T16:13:25.146Z,8.58
2022-12-22T16:15:52.118Z,8.44
2022-12-22T16:18:19.161Z,8.74
2022-12-22T16:20:50.196Z,8.82
2022-12-22T16:23:20.419Z,8.96
2022-12-22T16:25:48.053Z,8.97
2022-12-22T16:28:19.386Z,8.96
2022-12-22T16:30:47.292Z,9.02
2022-12-22T16:33:15.246Z,8.81
2022-12-22T16:35:42.771Z,8.57
2022-12-22T16:38:16.326Z,8.43
2022-12-22T16:40:53.020Z,8.41
2022-12-22T16:46:20.009Z,8.39
2022-12-22T16:48:59.475Z,8.17
2022-12-22T16:51:34.379Z,8.34
2022-12-22T16:54:02.532Z,8.10
2022-12-22T16:56:31.417Z,7.69
2022-12-22T16:58:58.705Z,7.90
2022-12-22T17:01:31.482Z,7.96
2022-12-22T17:04:03.728Z,7.96
2022-12-22T17:06:31.005Z,7.94
2022-12-22T17:08:58.237Z,7.91
2022-12-22T17:11:29.374Z,7.93
2022-12-22T17:14:21.543Z,8.04
2022-12-22T17:16:48.480Z,8.02
2022-12-22T17:19:15.341Z,7.98
2022-12-22T17:21:42.400Z,7.94
2022-12-22T17:24:13.090Z,7.83
2022-12-22T17:26:39.968Z,7.78
2022-12-22T17:29:07.245Z,7.80
2022-12-22T17:31:34.164Z,7.81
2022-12-22T17:34:01.265Z,7.85
2022-12-22T17:36:37.330Z,7.86
2022-12-22T17:39:04.873Z,7.86
2022-12-22T17:41:32.970Z,7.94
2022-12-22T17:44:00.110Z,7.93
2022-12-22T17:46:28.086Z,7.70
2022-12-22T17:48:55.285Z,7.71
2022-12-22T17:51:28.561Z,7.74
2022-12-22T17:53:57.992Z,7.68
2022-12-22T17:56:26.892Z,7.53
2022-12-22T17:58:54.103Z,7.53
2022-12-22T18:01:25.595Z,7.36
2022-12-22T18:03:52.757Z,6.62
2022-12-22T18:06:23.332Z,6.34
2022-12-22T18:08:52.333Z,6.40
2022-12-22T18:11:19.370Z,6.50
2022-12-22T18:13:46.433Z,6.47
2022-12-22T18:16:16.672Z,6.42
2022-12-22T18:18:43.998Z,6.11
2022-12-22T18:21:20.314Z,6.42
2022-12-22T18:23:50.670Z,6.40
2022-12-22T18:26:27.477Z,6.59
2022-12-22T18:28:55.520Z,6.78
2022-12-22T18:31:23.483Z,6.69
2022-12-22T18:33:51.804Z,7.00
2022-12-22T18:36:23.158Z,7.32
2022-12-22T18:38:50.512Z,7.53
2022-12-22T18:41:21.262Z,7.51
2022-12-22T18:43:49.133Z,7.06
2022-12-22T18:46:16.246Z,7.20
2022-12-22T18:48:43.322Z,7.29
2022-12-22T18:51:28.093Z,7.23
2022-12-22T18:53:55.117Z,7.15
2022-12-22T18:56:22.134Z,7.13
2022-12-22T18:58:49.607Z,6.91
2022-12-22T19:01:27.013Z,6.99
2022-12-22T19:03:56.785Z,6.80
2022-12-22T19:06:23.898Z,6.75
2022-12-22T19:08:51.525Z,6.37
2022-12-22T19:11:24.717Z,6.11
2022-12-22T19:13:52.686Z,5.93
2022-12-22T19:16:25.281Z,5.95
2022-12-22T19:18:52.264Z,5.43
2022-12-22T19:21:20.148Z,5.09
2022-12-22T19:23:47.126Z,4.89
2022-12-22T19:26:23.258Z,4.96
2022-12-22T19:28:54.539Z,5.24
2022-12-22T19:31:31.252Z,5.60
2022-12-22T19:34:00.817Z,5.88
2022-12-22T19:36:29.997Z,5.87
2022-12-22T19:39:04.071Z,5.87
2022-12-22T19:41:38.828Z,5.93
2022-12-22T19:44:12.591Z,6.02
2022-12-22T19:46:39.584Z,6.19
2022-12-22T19:49:06.444Z,6.12
2022-12-22T19:51:33.318Z,6.11
2022-12-22T19:54:00.272Z,6.08
2022-12-22T19:56:29.980Z,6.07
2022-12-22T19:58:59.961Z,6.08
2022-12-22T20:01:27.150Z,5.71
2022-12-22T20:03:56.352Z,5.44
2022-12-22T20:06:23.289Z,5.51
2022-12-22T20:08:50.208Z,5.71
2022-12-22T20:11:19.550Z,5.40
2022-12-22T20:13:48.079Z,5.33
2022-12-22T20:16:16.899Z,5.23
2022-12-22T20:18:46.590Z,4.98
2022-12-22T20:21:25.774Z,4.95
2022-12-22T20:23:54.618Z,4.96
2022-12-22T20:26:25.000Z,5.02
2022-12-22T20:28:53.008Z,4.97
2022-12-22T20:31:22.516Z,4.85
2022-12-22T20:33:49.665Z,5.05
2022-12-22T20:36:23.757Z,4.96
2022-12-22T20:38:52.495Z,5.12
2022-12-22T20:41:20.972Z,5.03
2022-12-22T20:43:48.881Z,4.99
2022-12-22T20:46:21.688Z,4.98
2022-12-22T20:48:56.298Z,4.82
2022-12-22T20:51:25.694Z,4.91
2022-12-22T20:53:52.927Z,4.93
2022-12-22T20:56:32.495Z,4.74
2022-12-22T20:59:01.236Z,4.40
2022-12-22T21:01:28.776Z,4.55
2022-12-22T21:03:55.918Z,4.66
2022-12-22T21:06:27.786Z,4.53
2022-12-22T21:08:56.692Z,4.62
2022-12-22T21:11:24.280Z,4.53
2022-12-22T21:13:51.369Z,4.65
2022-12-22T21:16:23.077Z,4.63
2022-12-22T21:18:51.134Z,4.45
2022-12-22T21:21:17.992Z,4.19
2022-12-22T21:23:45.182Z,3.78
2022-12-22T21:26:34.219Z,3.44
2022-12-22T21:29:08.242Z,3.49
2022-12-22T21:31:35.186Z,3.26
2022-12-22T21:34:02.070Z,3.14
2022-12-22T21:36:34.053Z,3.42
2022-12-22T21:39:04.568Z,3.58
2022-12-22T21:41:49.946Z,3.57
2022-12-22T21:44:17.005Z,3.39
2022-12-22T21:46:46.429Z,2.96
2022-12-22T21:49:21.403Z,3.09
2022-12-22T21:51:49.296Z,3.42
2022-12-22T21:54:18.111Z,3.57
2022-12-22T21:56:45.295Z,3.51
2022-12-22T21:59:12.518Z,3.72
2022-12-22T22:01:41.083Z,3.79
2022-12-22T22:04:08.350Z,3.59
2022-12-22T22:06:35.469Z,3.59
2022-12-22T22:09:05.191Z,3.56
2022-12-22T22:11:32.441Z,3.37
2022-12-22T22:13:59.693Z,3.30
2022-12-22T22:16:26.651Z,3.26
2022-12-22T22:18:53.562Z,3.44
2022-12-22T22:21:20.454Z,3.23
2022-12-22T22:23:47.356Z,3.19
2022-12-22T22:26:14.280Z,3.17
2022-12-22T22:28:41.170Z,3.18
2022-12-22T22:31:11.778Z,3.31
2022-12-22T22:33:38.760Z,3.12
2022-12-22T22:36:08.872Z,3.12
2022-12-22T22:38:36.393Z,3.10
2022-12-22T22:41:03.497Z,3.21
2022-12-22T22:43:30.430Z,3.04
2022-12-22T22:45:57.451Z,2.68
2022-12-22T22:48:24.683Z,2.48
2022-12-22T22:50:51.778Z,2.60
2022-12-22T22:53:18.702Z,2.34
2022-12-22T22:55:45.562Z,2.82
2022-12-22T22:58:12.667Z,2.98
2022-12-22T23:00:39.640Z,3.24
2022-12-22T23:03:06.769Z,3.13
2022-12-22T23:05:33.941Z,3.15
2022-12-22T23:08:00.840Z,2.97
2022-12-22T23:10:27.753Z,2.25
2022-12-22T23:12:55.064Z,1.72
2022-12-22T23:15:21.943Z,1.88
2022-12-22T23:17:51.262Z,2.05
2022-12-22T23:20:18.387Z,2.27
2022-12-22T23:22:45.288Z,2.66
2022-12-22T23:25:12.411Z,2.84
2022-12-22T23:27:39.278Z,2.73
2022-12-22T23:30:07.511Z,2.95
2022-12-22T23:32:34.487Z,2.82
2022-12-22T23:35:01.455Z,2.98
2022-12-22T23:37:28.691Z,3.08
2022-12-22T23:39:56.129Z,3.12
2022-12-22T23:42:28.831Z,2.97
2022-12-22T23:44:55.714Z,2.71
2022-12-22T23:47:22.730Z,2.33
2022-12-22T23:49:49.607Z,2.44
2022-12-22T23:52:16.453Z,2.22
2022-12-22T23:54:43.399Z,2.02
2022-12-22T23:57:10.253Z,2.40
2022-12-22T23:59:37.110Z,2.26
